This is the latest recevied weather packets stored in our database for station/object KC9DRE. If no packets are shown the sender has not sent any weather packets the latest 10 day(s).
| Time | Temp. | Humidity | Pressure | Rain* | Wind** | Luminosity | Snow |
|---|---|---|---|---|---|---|---|
| 1787865501 | 30° C | 58% | 1015.3 hPa | 0 mm | - | 485 W/m² | - |
| 1787865195 | 30.56° C | 56% | 1015.3 hPa | 0 mm | - | 279 W/m² | - |
| 1787864892 | 31.67° C | 51% | 1015.3 hPa | 0 mm | - | 118 W/m² | - |
| 1787864592 | 31.67° C | 54% | 1015.3 hPa | 0 mm | - | 483 W/m² | - |
| 1787864286 | 30.56° C | 55% | 1015.3 hPa | 0 mm | - | 498 W/m² | - |
| 1787863981 | 30° C | 57% | 1015.3 hPa | 0 mm | - | 483 W/m² | - |
| 1787863679 | 28.89° C | 64% | 1015.3 hPa | 0 mm | - | 498 W/m² | - |
| 1787863378 | 28.33° C | 61% | 1015.5 hPa | 0 mm | - | 506 W/m² | - |
| 1787863074 | 28.89° C | 60% | 1015.5 hPa | 0 mm | - | 111 W/m² | - |
| 1787862770 | 30° C | 57% | 1015.4 hPa | 0 mm | - | 101 W/m² | - |
| 1787862469 | 31.67° C | 54% | 1015.5 hPa | 0 mm | - | 516 W/m² | - |
| 1787862164 | 31.67° C | 50% | 1015.4 hPa | 0 mm | - | 575 W/m² | - |
| 1787861859 | 31.67° C | 50% | 1015.4 hPa | 0 mm | - | 606 W/m² | - |
| 1787861558 | 31.11° C | 52% | 1015.7 hPa | 0 mm | - | 609 W/m² | - |
| 1787861253 | 30° C | 57% | 1015.6 hPa | 0 mm | - | 622 W/m² | - |
| 1787860952 | 28.89° C | 57% | 1015.4 hPa | 0 mm | - | 640 W/m² | - |
| 1787860647 | 29.44° C | 60% | 1015.6 hPa | 0 mm | - | 201 W/m² | - |
| 1787860342 | 30° C | 58% | 1015.7 hPa | 0 mm | - | 225 W/m² | - |
| 1787860037 | 29.44° C | 58% | 1015.7 hPa | 0 mm | - | 734 W/m² | - |
| 1787859732 | 28.89° C | 60% | 1015.7 hPa | 0 mm | - | 754 W/m² | - |
| 1787859427 | 28.33° C | 62% | 1015.8 hPa | 0 mm | - | 581 W/m² | - |
| 1787859122 | 28.33° C | 63% | 1015.9 hPa | 0 mm | - | 156 W/m² | - |
| 1787858818 | 28.33° C | 61% | 1015.6 hPa | 0 mm | - | 142 W/m² | - |
| 1787858514 | 28.33° C | 62% | 1015.7 hPa | 0 mm | - | 189 W/m² | - |
| 1787858213 | 28.33° C | 61% | 1015.8 hPa | 0 mm | - | 484 W/m² | - |
* Rain latest hour (hover to see other rain measurements)
** Current wind speed in m/s (hover to see current wind gust speed)